Bampton, United Kingdom
Current Conditions -  °F | °C
As of 1:50 AM on Friday 19 Dec 2014 (Local Time) from EGVN Reporting Station
Moderate Rain Moderate Rain  
Wind Chill: 54°   Ceiling: 500
Heat Index: 54°   Visibility: 2.1mi
Dew Point: 52°   Wind: 13mph
Humidity: 94%   Direction: 240°WSW
Pressure: 29.77"   Gusts: NA
Location:  51.73°N, 1.55°W
Report Text: EGVN 190150Z 24011KT 3500 RADZ BKN005 OVC015 12/11 Q1008 TEMPO 4000
Loading
Personal Weather Stations






























Interactive Weather Map New forecast layout! Learn more

10-Day Weather Forecast

Advertisements
Track Severe Weather on mobile